sensor_id;sensor_type;location;lat;lon;timestamp;temperature;humidity
210;DHT22;90;48.810;9.120;2023-08-31T00:01:01;15.30;87.10
210;DHT22;90;48.810;9.120;2023-08-31T00:06:02;15.30;86.70
210;DHT22;90;48.810;9.120;2023-08-31T00:08:33;15.30;87.00
210;DHT22;90;48.810;9.120;2023-08-31T00:45:59;15.10;86.80
210;DHT22;90;48.810;9.120;2023-08-31T00:48:31;15.10;86.90
210;DHT22;90;48.810;9.120;2023-08-31T00:53:35;15.10;86.60
210;DHT22;90;48.810;9.120;2023-08-31T00:56:08;15.10;86.70
210;DHT22;90;48.810;9.120;2023-08-31T01:06:22;15.10;87.20
210;DHT22;90;48.810;9.120;2023-08-31T01:14:17;15.00;87.40
210;DHT22;90;48.810;9.120;2023-08-31T01:16:51;15.00;87.40
210;DHT22;90;48.810;9.120;2023-08-31T01:19:34;14.90;87.20
210;DHT22;90;48.810;9.120;2023-08-31T01:22:13;14.90;87.20
210;DHT22;90;48.810;9.120;2023-08-31T01:24:50;14.90;87.00
210;DHT22;90;48.810;9.120;2023-08-31T01:37:12;14.70;86.90
210;DHT22;90;48.810;9.120;2023-08-31T01:42:16;14.70;87.10
210;DHT22;90;48.810;9.120;2023-08-31T01:44:45;14.60;87.30
210;DHT22;90;48.810;9.120;2023-08-31T01:47:15;14.60;87.30
210;DHT22;90;48.810;9.120;2023-08-31T02:44:11;14.80;88.80
210;DHT22;90;48.810;9.120;2023-08-31T04:00:51;14.50;89.10
210;DHT22;90;48.810;9.120;2023-08-31T04:38:02;14.40;88.10
210;DHT22;90;48.810;9.120;2023-08-31T04:40:29;14.40;88.20
210;DHT22;90;48.810;9.120;2023-08-31T04:42:56;14.40;87.90
210;DHT22;90;48.810;9.120;2023-08-31T04:45:22;14.40;87.80
210;DHT22;90;48.810;9.120;2023-08-31T04:47:49;14.50;87.60
210;DHT22;90;48.810;9.120;2023-08-31T04:50:18;14.40;87.40
210;DHT22;90;48.810;9.120;2023-08-31T04:52:45;14.50;87.20
210;DHT22;90;48.810;9.120;2023-08-31T04:55:13;14.40;87.50
210;DHT22;90;48.810;9.120;2023-08-31T04:57:39;14.50;87.10
210;DHT22;90;48.810;9.120;2023-08-31T05:00:07;14.50;87.00
210;DHT22;90;48.810;9.120;2023-08-31T05:02:34;14.50;87.10
210;DHT22;90;48.810;9.120;2023-08-31T05:05:01;14.60;86.90
210;DHT22;90;48.810;9.120;2023-08-31T05:07:30;14.50;87.00
210;DHT22;90;48.810;9.120;2023-08-31T05:09:56;14.50;87.00
210;DHT22;90;48.810;9.120;2023-08-31T05:12:23;14.50;86.90
210;DHT22;90;48.810;9.120;2023-08-31T05:14:50;14.60;86.70
210;DHT22;90;48.810;9.120;2023-08-31T05:17:16;14.50;86.90
210;DHT22;90;48.810;9.120;2023-08-31T05:19:43;14.40;87.00
210;DHT22;90;48.810;9.120;2023-08-31T05:22:10;14.40;87.00
210;DHT22;90;48.810;9.120;2023-08-31T05:24:38;14.30;87.30
210;DHT22;90;48.810;9.120;2023-08-31T05:27:04;14.30;87.70
210;DHT22;90;48.810;9.120;2023-08-31T05:29:31;14.40;87.70
210;DHT22;90;48.810;9.120;2023-08-31T05:31:59;14.40;87.60
210;DHT22;90;48.810;9.120;2023-08-31T05:34:26;14.40;87.40
210;DHT22;90;48.810;9.120;2023-08-31T05:39:20;14.60;87.00
210;DHT22;90;48.810;9.120;2023-08-31T05:41:50;14.60;86.90
210;DHT22;90;48.810;9.120;2023-08-31T05:44:17;14.60;87.00
210;DHT22;90;48.810;9.120;2023-08-31T05:46:43;14.50;87.60
210;DHT22;90;48.810;9.120;2023-08-31T05:49:10;14.50;87.60
210;DHT22;90;48.810;9.120;2023-08-31T05:51:37;14.50;87.60
210;DHT22;90;48.810;9.120;2023-08-31T05:54:04;14.50;87.70
210;DHT22;90;48.810;9.120;2023-08-31T05:56:35;14.50;87.70
210;DHT22;90;48.810;9.120;2023-08-31T05:59:03;14.50;87.70
210;DHT22;90;48.810;9.120;2023-08-31T06:01:30;14.50;87.70
210;DHT22;90;48.810;9.120;2023-08-31T06:03:57;14.40;87.70
210;DHT22;90;48.810;9.120;2023-08-31T06:06:24;14.40;88.00
210;DHT22;90;48.810;9.120;2023-08-31T06:08:50;14.40;87.90
210;DHT22;90;48.810;9.120;2023-08-31T06:11:19;14.40;88.10
210;DHT22;90;48.810;9.120;2023-08-31T06:13:46;14.40;88.10
210;DHT22;90;48.810;9.120;2023-08-31T06:16:15;14.40;88.40
210;DHT22;90;48.810;9.120;2023-08-31T06:18:41;14.40;88.50
210;DHT22;90;48.810;9.120;2023-08-31T06:21:09;14.40;88.50
210;DHT22;90;48.810;9.120;2023-08-31T06:23:35;14.40;88.70
210;DHT22;90;48.810;9.120;2023-08-31T06:26:02;14.40;88.50
210;DHT22;90;48.810;9.120;2023-08-31T06:30:56;14.50;88.30
210;DHT22;90;48.810;9.120;2023-08-31T06:33:24;14.50;88.20
210;DHT22;90;48.810;9.120;2023-08-31T06:35:51;14.50;88.10
210;DHT22;90;48.810;9.120;2023-08-31T06:38:18;14.70;88.10
210;DHT22;90;48.810;9.120;2023-08-31T06:40:44;14.80;87.70
210;DHT22;90;48.810;9.120;2023-08-31T06:43:11;14.90;87.50
210;DHT22;90;48.810;9.120;2023-08-31T06:45:38;15.00;87.60
210;DHT22;90;48.810;9.120;2023-08-31T06:48:05;15.20;86.60
210;DHT22;90;48.810;9.120;2023-08-31T06:50:34;15.30;86.50
210;DHT22;90;48.810;9.120;2023-08-31T06:53:02;15.50;86.10
210;DHT22;90;48.810;9.120;2023-08-31T06:55:29;15.50;85.40
210;DHT22;90;48.810;9.120;2023-08-31T06:57:57;15.70;84.30
210;DHT22;90;48.810;9.120;2023-08-31T07:00:24;15.60;83.20
210;DHT22;90;48.810;9.120;2023-08-31T07:02:50;15.60;83.20
210;DHT22;90;48.810;9.120;2023-08-31T07:05:18;15.70;81.90
210;DHT22;90;48.810;9.120;2023-08-31T07:07:52;15.60;82.40
210;DHT22;90;48.810;9.120;2023-08-31T07:10:19;15.50;82.90
210;DHT22;90;48.810;9.120;2023-08-31T07:12:45;15.50;83.10
210;DHT22;90;48.810;9.120;2023-08-31T07:15:12;15.50;83.30
210;DHT22;90;48.810;9.120;2023-08-31T07:17:39;15.50;83.50
210;DHT22;90;48.810;9.120;2023-08-31T07:20:06;15.50;83.80
210;DHT22;90;48.810;9.120;2023-08-31T07:22:34;15.50;83.60
210;DHT22;90;48.810;9.120;2023-08-31T07:25:03;15.50;84.30
210;DHT22;90;48.810;9.120;2023-08-31T07:27:31;15.50;84.50
210;DHT22;90;48.810;9.120;2023-08-31T07:29:58;15.50;84.70
210;DHT22;90;48.810;9.120;2023-08-31T07:34:51;15.70;84.50
210;DHT22;90;48.810;9.120;2023-08-31T07:37:18;15.90;83.10
210;DHT22;90;48.810;9.120;2023-08-31T07:39:45;16.00;82.80
210;DHT22;90;48.810;9.120;2023-08-31T07:42:13;16.20;81.80
210;DHT22;90;48.810;9.120;2023-08-31T07:44:40;16.30;75.10
210;DHT22;90;48.810;9.120;2023-08-31T07:47:07;16.30;74.00
210;DHT22;90;48.810;9.120;2023-08-31T07:49:34;16.30;74.40
210;DHT22;90;48.810;9.120;2023-08-31T07:52:00;16.30;73.30
210;DHT22;90;48.810;9.120;2023-08-31T07:54:28;16.40;73.30
210;DHT22;90;48.810;9.120;2023-08-31T07:56:55;16.60;73.60
210;DHT22;90;48.810;9.120;2023-08-31T07:59:23;16.70;73.70
210;DHT22;90;48.810;9.120;2023-08-31T08:01:49;16.70;72.20
210;DHT22;90;48.810;9.120;2023-08-31T08:04:16;16.80;72.00
210;DHT22;90;48.810;9.120;2023-08-31T08:06:44;16.80;70.00
210;DHT22;90;48.810;9.120;2023-08-31T08:09:23;16.90;69.10
210;DHT22;90;48.810;9.120;2023-08-31T08:14:17;17.00;69.70
210;DHT22;90;48.810;9.120;2023-08-31T08:16:45;16.90;63.60
210;DHT22;90;48.810;9.120;2023-08-31T08:19:12;16.90;63.80
210;DHT22;90;48.810;9.120;2023-08-31T08:21:39;17.00;65.70
210;DHT22;90;48.810;9.120;2023-08-31T08:24:06;16.90;66.10
210;DHT22;90;48.810;9.120;2023-08-31T08:28:59;16.90;65.50
210;DHT22;90;48.810;9.120;2023-08-31T08:31:26;16.80;65.90
210;DHT22;90;48.810;9.120;2023-08-31T08:33:54;16.90;66.00
210;DHT22;90;48.810;9.120;2023-08-31T08:36:21;16.90;65.20
210;DHT22;90;48.810;9.120;2023-08-31T08:38:47;17.00;64.40
210;DHT22;90;48.810;9.120;2023-08-31T08:41:14;17.00;65.00
210;DHT22;90;48.810;9.120;2023-08-31T08:43:47;17.00;65.80
210;DHT22;90;48.810;9.120;2023-08-31T08:48:42;17.20;65.60
210;DHT22;90;48.810;9.120;2023-08-31T08:51:11;17.20;64.50
210;DHT22;90;48.810;9.120;2023-08-31T08:53:40;17.40;65.10
210;DHT22;90;48.810;9.120;2023-08-31T08:56:09;17.50;63.90
210;DHT22;90;48.810;9.120;2023-08-31T09:01:04;17.50;65.50
210;DHT22;90;48.810;9.120;2023-08-31T09:03:32;17.50;66.00
210;DHT22;90;48.810;9.120;2023-08-31T09:05:59;17.50;66.20
210;DHT22;90;48.810;9.120;2023-08-31T09:08:28;17.50;65.80
210;DHT22;90;48.810;9.120;2023-08-31T09:10:56;17.50;65.50
210;DHT22;90;48.810;9.120;2023-08-31T09:13:26;17.60;65.50
210;DHT22;90;48.810;9.120;2023-08-31T09:15:54;17.80;65.10
210;DHT22;90;48.810;9.120;2023-08-31T09:18:25;17.90;62.90
210;DHT22;90;48.810;9.120;2023-08-31T09:20:52;18.00;62.90
210;DHT22;90;48.810;9.120;2023-08-31T09:23:19;18.00;60.00
210;DHT22;90;48.810;9.120;2023-08-31T09:25:49;18.10;58.50
210;DHT22;90;48.810;9.120;2023-08-31T09:28:21;18.10;58.00
210;DHT22;90;48.810;9.120;2023-08-31T09:30:49;18.00;58.40
210;DHT22;90;48.810;9.120;2023-08-31T09:33:16;18.00;57.40
210;DHT22;90;48.810;9.120;2023-08-31T09:35:48;18.00;59.30
210;DHT22;90;48.810;9.120;2023-08-31T09:38:16;18.10;57.50
210;DHT22;90;48.810;9.120;2023-08-31T09:40:42;18.10;58.10
210;DHT22;90;48.810;9.120;2023-08-31T09:43:11;17.80;59.00
210;DHT22;90;48.810;9.120;2023-08-31T09:45:38;17.80;59.00
210;DHT22;90;48.810;9.120;2023-08-31T09:48:05;17.80;59.70
210;DHT22;90;48.810;9.120;2023-08-31T09:50:33;17.80;58.20
210;DHT22;90;48.810;9.120;2023-08-31T09:53:02;17.60;58.70
210;DHT22;90;48.810;9.120;2023-08-31T09:55:30;17.40;59.80
210;DHT22;90;48.810;9.120;2023-08-31T09:57:58;17.40;60.10
210;DHT22;90;48.810;9.120;2023-08-31T10:00:29;17.40;59.10
210;DHT22;90;48.810;9.120;2023-08-31T10:02:59;17.40;60.10
210;DHT22;90;48.810;9.120;2023-08-31T10:05:26;17.50;60.10
210;DHT22;90;48.810;9.120;2023-08-31T10:07:54;17.70;60.00
210;DHT22;90;48.810;9.120;2023-08-31T10:12:51;17.80;59.10
210;DHT22;90;48.810;9.120;2023-08-31T10:15:18;17.90;58.90
210;DHT22;90;48.810;9.120;2023-08-31T10:17:46;17.80;57.70
210;DHT22;90;48.810;9.120;2023-08-31T10:20:16;17.80;58.30
210;DHT22;90;48.810;9.120;2023-08-31T10:22:43;17.80;58.20
210;DHT22;90;48.810;9.120;2023-08-31T10:25:10;17.80;58.30
210;DHT22;90;48.810;9.120;2023-08-31T10:27:38;17.80;57.30
210;DHT22;90;48.810;9.120;2023-08-31T10:30:19;17.80;57.90
210;DHT22;90;48.810;9.120;2023-08-31T10:33:22;18.20;58.60
210;DHT22;90;48.810;9.120;2023-08-31T10:35:51;18.30;57.60
210;DHT22;90;48.810;9.120;2023-08-31T10:38:24;18.30;57.40
210;DHT22;90;48.810;9.120;2023-08-31T10:41:22;18.30;57.20
210;DHT22;90;48.810;9.120;2023-08-31T10:43:52;18.20;57.60
210;DHT22;90;48.810;9.120;2023-08-31T10:46:27;18.20;58.70
210;DHT22;90;48.810;9.120;2023-08-31T10:48:56;18.20;58.00
210;DHT22;90;48.810;9.120;2023-08-31T10:51:25;18.10;59.00
210;DHT22;90;48.810;9.120;2023-08-31T10:53:52;18.20;58.70
210;DHT22;90;48.810;9.120;2023-08-31T10:56:19;18.20;59.70
210;DHT22;90;48.810;9.120;2023-08-31T10:59:04;18.20;59.80
210;DHT22;90;48.810;9.120;2023-08-31T11:01:53;18.30;58.90
210;DHT22;90;48.810;9.120;2023-08-31T11:04:22;18.30;59.30
210;DHT22;90;48.810;9.120;2023-08-31T11:06:49;18.20;58.80
210;DHT22;90;48.810;9.120;2023-08-31T11:11:51;18.20;59.60
210;DHT22;90;48.810;9.120;2023-08-31T11:14:19;18.00;60.20
210;DHT22;90;48.810;9.120;2023-08-31T11:16:46;18.00;59.80
210;DHT22;90;48.810;9.120;2023-08-31T11:19:13;18.00;60.00
210;DHT22;90;48.810;9.120;2023-08-31T11:21:41;18.10;60.30
210;DHT22;90;48.810;9.120;2023-08-31T11:24:08;18.40;59.50
210;DHT22;90;48.810;9.120;2023-08-31T11:26:35;18.40;58.50
210;DHT22;90;48.810;9.120;2023-08-31T11:29:07;18.40;58.50
210;DHT22;90;48.810;9.120;2023-08-31T11:31:38;18.50;58.90
210;DHT22;90;48.810;9.120;2023-08-31T11:34:05;18.60;60.00
210;DHT22;90;48.810;9.120;2023-08-31T11:39:03;18.70;58.30
210;DHT22;90;48.810;9.120;2023-08-31T11:41:31;18.70;58.20
210;DHT22;90;48.810;9.120;2023-08-31T11:43:59;18.70;58.80
210;DHT22;90;48.810;9.120;2023-08-31T11:46:26;18.70;59.50
210;DHT22;90;48.810;9.120;2023-08-31T11:48:53;18.80;59.20
210;DHT22;90;48.810;9.120;2023-08-31T11:51:20;18.80;58.60
210;DHT22;90;48.810;9.120;2023-08-31T11:53:47;18.80;59.00
210;DHT22;90;48.810;9.120;2023-08-31T11:56:15;18.80;59.10
210;DHT22;90;48.810;9.120;2023-08-31T11:58:43;18.90;58.80
210;DHT22;90;48.810;9.120;2023-08-31T12:01:17;18.80;57.70
210;DHT22;90;48.810;9.120;2023-08-31T12:03:45;18.90;56.90
210;DHT22;90;48.810;9.120;2023-08-31T12:06:17;18.90;58.00
210;DHT22;90;48.810;9.120;2023-08-31T12:08:45;18.80;57.50
210;DHT22;90;48.810;9.120;2023-08-31T12:43:30;20.10;54.40
210;DHT22;90;48.810;9.120;2023-08-31T12:45:58;20.00;54.50
210;DHT22;90;48.810;9.120;2023-08-31T12:53:29;19.60;56.60
210;DHT22;90;48.810;9.120;2023-08-31T13:46:02;20.60;52.70
210;DHT22;90;48.810;9.120;2023-08-31T14:05:48;19.20;58.50
210;DHT22;90;48.810;9.120;2023-08-31T14:18:29;18.90;59.30
210;DHT22;90;48.810;9.120;2023-08-31T14:23:29;18.70;59.60
210;DHT22;90;48.810;9.120;2023-08-31T15:00:57;18.60;63.40
210;DHT22;90;48.810;9.120;2023-08-31T15:08:37;18.80;63.00
210;DHT22;90;48.810;9.120;2023-08-31T15:33:32;18.80;62.10
210;DHT22;90;48.810;9.120;2023-08-31T15:36:06;18.70;62.70
210;DHT22;90;48.810;9.120;2023-08-31T15:38:36;18.70;63.50
210;DHT22;90;48.810;9.120;2023-08-31T15:43:36;18.50;63.70
210;DHT22;90;48.810;9.120;2023-08-31T15:48:39;18.40;64.80
210;DHT22;90;48.810;9.120;2023-08-31T15:53:33;18.50;68.50
210;DHT22;90;48.810;9.120;2023-08-31T15:56:01;18.70;67.50
210;DHT22;90;48.810;9.120;2023-08-31T16:16:01;18.20;69.30
210;DHT22;90;48.810;9.120;2023-08-31T16:20:58;18.20;69.80
210;DHT22;90;48.810;9.120;2023-08-31T16:28:25;18.20;71.20
210;DHT22;90;48.810;9.120;2023-08-31T16:40:57;18.50;70.30
210;DHT22;90;48.810;9.120;2023-08-31T16:46:00;18.30;70.60
210;DHT22;90;48.810;9.120;2023-08-31T18:00:17;17.60;81.00
210;DHT22;90;48.810;9.120;2023-08-31T18:20:15;17.50;82.40
210;DHT22;90;48.810;9.120;2023-08-31T18:30:11;17.40;82.00
210;DHT22;90;48.810;9.120;2023-08-31T18:42:37;17.30;81.80
210;DHT22;90;48.810;9.120;2023-08-31T19:27:44;17.10;84.60
210;DHT22;90;48.810;9.120;2023-08-31T19:40:19;17.00;80.30
210;DHT22;90;48.810;9.120;2023-08-31T19:55:04;17.10;80.00
210;DHT22;90;48.810;9.120;2023-08-31T20:27:04;17.00;85.00
210;DHT22;90;48.810;9.120;2023-08-31T21:09:18;16.60;87.70
210;DHT22;90;48.810;9.120;2023-08-31T21:54:05;16.40;90.80
210;DHT22;90;48.810;9.120;2023-08-31T22:46:06;16.30;90.80
210;DHT22;90;48.810;9.120;2023-08-31T22:51:03;16.30;90.30
